Time;durP1;ratioP1;P1;durP2;ratioP2;P2;SDS_P1;SDS_P2;PMS_P1;PMS_P2;Temp;Humidity;BMP_temperature;BMP_pressure;BME280_temperature;BME280_humidity;BME280_pressure;Samples;Min_cycle;Max_cycle;Signal;HPM_P1;HPM_P2
2021/01/09 00:01:38;;;;;;;;;;;1.10;99.90;;;;;;4886688;29;19923;-79
2021/01/09 00:04:08;;;;;;;;;;;1.20;99.90;;;;;;4885958;29;20262;-81
2021/01/09 00:06:36;;;;;;;;;;;1.20;99.90;;;;;;4902478;29;20361;-80
2021/01/09 00:09:05;;;;;;;;;;;1.50;99.90;;;;;;4888726;29;19923;-80
2021/01/09 00:11:33;;;;;;;;;;;1.80;99.90;;;;;;4904743;29;20001;-80
2021/01/09 00:14:00;;;;;;;;;;;1.80;99.90;;;;;;4890756;29;19934;-79
2021/01/09 00:16:28;;;;;;;;;;;1.80;99.90;;;;;;4894614;29;19942;-79
2021/01/09 00:18:57;;;;;;;;;;;1.80;99.90;;;;;;4880218;29;19923;-80
2021/01/09 00:21:24;;;;;;;;;;;1.70;99.90;;;;;;4873644;29;19923;-81
2021/01/09 00:23:52;;;;;;;;;;;1.70;99.90;;;;;;4884827;29;19923;-79
2021/01/09 00:26:29;;;;;;;;;;;1.70;99.90;;;;;;4884548;29;19924;-80
2021/01/09 00:28:58;;;;;;;;;;;1.80;99.90;;;;;;4893704;29;19923;-79
2021/01/09 00:31:27;;;;;;;;;;;1.80;99.90;;;;;;4873029;29;20277;-80
2021/01/09 00:34:00;;;;;;;;;;;1.80;99.90;;;;;;4889336;29;20273;-80
2021/01/09 00:36:34;;;;;;;;;;;1.80;99.90;;;;;;4908140;29;19923;-80
2021/01/09 00:39:04;;;;;;;;;;;1.80;99.90;;;;;;4911257;29;20357;-81
2021/01/09 00:41:33;;;;;;;;;;;1.80;99.90;;;;;;4857444;29;19923;-80
2021/01/09 00:44:17;;;;;;;;;;;1.70;99.90;;;;;;4903245;29;20247;-80
2021/01/09 00:46:44;;;;;;;;;;;1.70;99.90;;;;;;4884314;29;19939;-82
2021/01/09 00:49:12;;;;;;;;;;;1.70;99.90;;;;;;4871040;29;19935;-80
2021/01/09 00:51:39;;;;;;;;;;;1.70;99.90;;;;;;4876051;29;19927;-79
2021/01/09 00:54:07;;;;;;;;;;;1.70;99.90;;;;;;4891261;29;19923;-80
2021/01/09 00:56:35;;;;;;;;;;;1.60;99.90;;;;;;4874039;29;19931;-79
2021/01/09 00:59:04;;;;;;;;;;;1.50;99.90;;;;;;4889204;29;19927;-79
2021/01/09 01:01:32;;;;;;;;;;;1.50;99.90;;;;;;4889053;29;19993;-79
2021/01/09 01:04:00;;;;;;;;;;;1.40;99.90;;;;;;4889022;29;19924;-82
2021/01/09 01:06:29;;;;;;;;;;;1.40;99.90;;;;;;4889662;29;19934;-79
2021/01/09 01:08:56;;;;;;;;;;;1.40;99.90;;;;;;4890970;29;19923;-80
2021/01/09 01:11:25;;;;;;;;;;;1.40;99.90;;;;;;4901697;29;19923;-78
2021/01/09 01:13:53;;;;;;;;;;;1.40;99.90;;;;;;4881992;29;19908;-81
2021/01/09 01:16:20;;;;;;;;;;;1.40;99.90;;;;;;4887052;29;19927;-79
2021/01/09 01:18:47;;;;;;;;;;;1.50;99.90;;;;;;4883889;29;19942;-78
2021/01/09 01:21:14;;;;;;;;;;;1.60;99.90;;;;;;4876205;29;19923;-79
2021/01/09 01:23:42;;;;;;;;;;;1.80;99.90;;;;;;4875123;29;20309;-79
2021/01/09 01:26:14;;;;;;;;;;;1.90;99.90;;;;;;4870594;29;19923;-79
2021/01/09 01:28:41;;;;;;;;;;;2.00;99.90;;;;;;4865608;29;19931;-79
2021/01/09 01:31:11;;;;;;;;;;;2.00;99.90;;;;;;4866084;29;19934;-81
2021/01/09 01:33:40;;;;;;;;;;;2.00;99.90;;;;;;4850833;29;20378;-80
2021/01/09 01:36:08;;;;;;;;;;;1.80;99.90;;;;;;4867587;29;20369;-79
2021/01/09 01:38:37;;;;;;;;;;;1.70;99.90;;;;;;4867474;29;19923;-79
2021/01/09 01:41:06;;;;;;;;;;;1.70;99.90;;;;;;4888383;29;19928;-80
2021/01/09 01:43:35;;;;;;;;;;;1.60;99.90;;;;;;4890296;29;19935;-80
2021/01/09 01:46:04;;;;;;;;;;;1.50;99.90;;;;;;4890692;29;19927;-79
2021/01/09 01:48:31;;;;;;;;;;;1.50;99.90;;;;;;4886271;29;20251;-80
2021/01/09 01:51:00;;;;;;;;;;;1.50;99.90;;;;;;4886478;29;19924;-80
2021/01/09 01:53:28;;;;;;;;;;;1.50;99.90;;;;;;4889880;29;19923;-79
2021/01/09 01:55:55;;;;;;;;;;;1.50;99.90;;;;;;4871379;29;19924;-80
2021/01/09 01:58:23;;;;;;;;;;;1.60;99.90;;;;;;4889681;29;19934;-78
2021/01/09 02:00:50;;;;;;;;;;;1.60;99.90;;;;;;4868749;29;19927;-79
2021/01/09 02:03:21;;;;;;;;;;;1.60;99.90;;;;;;4868289;29;19936;-79
2021/01/09 02:05:53;;;;;;;;;;;1.60;99.90;;;;;;4865894;29;19947;-79
2021/01/09 02:08:21;;;;;;;;;;;1.60;99.90;;;;;;4867384;29;19928;-79
2021/01/09 02:10:52;;;;;;;;;;;1.50;99.90;;;;;;4852991;29;19931;-79
2021/01/09 02:13:32;;;;;;;;;;;1.50;99.90;;;;;;4875760;29;19928;-77
2021/01/09 02:16:00;;;;;;;;;;;1.60;99.90;;;;;;4892714;29;20354;-77
2021/01/09 02:18:29;;;;;;;;;;;1.50;99.90;;;;;;4895364;29;19934;-79
2021/01/09 02:21:05;;;;;;;;;;;1.50;99.90;;;;;;4890621;29;19923;-80
2021/01/09 02:23:36;;;;;;;;;;;1.50;99.90;;;;;;4875747;29;19934;-79
2021/01/09 02:26:05;;;;;;;;;;;1.50;99.90;;;;;;4888553;29;19924;-79
2021/01/09 02:28:33;;;;;;;;;;;1.50;99.90;;;;;;4883194;29;19924;-79
2021/01/09 02:31:01;;;;;;;;;;;1.50;99.90;;;;;;4885392;29;20346;-79
2021/01/09 02:33:28;;;;;;;;;;;1.50;99.90;;;;;;4871401;29;19923;-79
2021/01/09 02:35:57;;;;;;;;;;;1.50;99.90;;;;;;4887540;29;19950;-80
2021/01/09 02:38:25;;;;;;;;;;;1.50;99.90;;;;;;4896791;29;19923;-79
2021/01/09 02:40:55;;;;;;;;;;;1.60;99.90;;;;;;4899308;29;19924;-79
2021/01/09 02:43:25;;;;;;;;;;;1.60;99.90;;;;;;4883773;29;19934;-80
2021/01/09 02:45:52;;;;;;;;;;;1.60;99.90;;;;;;4885765;29;19940;-78
2021/01/09 02:48:19;;;;;;;;;;;1.70;99.90;;;;;;4886130;29;19924;-79
2021/01/09 02:50:46;;;;;;;;;;;1.70;99.90;;;;;;4885191;29;19924;-79
2021/01/09 02:53:15;;;;;;;;;;;1.70;99.90;;;;;;4870105;29;19931;-79
2021/01/09 02:55:44;;;;;;;;;;;1.60;99.90;;;;;;4891411;29;19923;-80
2021/01/09 02:58:13;;;;;;;;;;;1.60;99.90;;;;;;4883550;29;19924;-79
2021/01/09 03:00:43;;;;;;;;;;;1.60;99.90;;;;;;4882270;29;20273;-78
2021/01/09 03:03:10;;;;;;;;;;;1.60;99.90;;;;;;4881262;29;19928;-80
2021/01/09 03:05:37;;;;;;;;;;;1.60;99.90;;;;;;4882762;29;20258;-79
2021/01/09 03:08:05;;;;;;;;;;;1.60;99.90;;;;;;4869931;29;20277;-78
2021/01/09 03:10:33;;;;;;;;;;;1.60;99.90;;;;;;4889246;29;19924;-81
2021/01/09 03:13:01;;;;;;;;;;;1.60;99.90;;;;;;4884278;29;19924;-78
2021/01/09 03:15:29;;;;;;;;;;;1.50;99.90;;;;;;4885327;29;19924;-78
2021/01/09 03:17:57;;;;;;;;;;;1.60;99.90;;;;;;4871226;29;19935;-78
2021/01/09 03:20:25;;;;;;;;;;;1.60;99.90;;;;;;4889078;29;19934;-80
2021/01/09 03:22:53;;;;;;;;;;;1.60;99.90;;;;;;4894190;29;19924;-78
2021/01/09 03:25:20;;;;;;;;;;;1.60;99.90;;;;;;4896640;29;19927;-78
2021/01/09 03:27:48;;;;;;;;;;;1.60;99.90;;;;;;4901795;29;19924;-78
2021/01/09 03:30:21;;;;;;;;;;;1.60;99.90;;;;;;4909118;29;19933;-79
2021/01/09 03:32:49;;;;;;;;;;;1.60;99.90;;;;;;4875899;29;19934;-79
2021/01/09 03:35:16;;;;;;;;;;;1.60;99.90;;;;;;4912583;29;20265;-78
2021/01/09 03:37:43;;;;;;;;;;;1.50;99.90;;;;;;4866500;29;19934;-78
2021/01/09 03:40:13;;;;;;;;;;;1.50;99.90;;;;;;4871537;29;19934;-80
2021/01/09 03:42:40;;;;;;;;;;;1.50;99.90;;;;;;4904253;29;19933;-79
2021/01/09 03:45:08;;;;;;;;;;;1.50;99.90;;;;;;4906079;29;20284;-79
2021/01/09 03:47:38;;;;;;;;;;;1.50;99.90;;;;;;4902882;29;19923;-77
2021/01/09 03:50:08;;;;;;;;;;;1.50;99.90;;;;;;4874768;29;19923;-79
2021/01/09 03:52:35;;;;;;;;;;;1.50;99.90;;;;;;4919548;29;19923;-79
2021/01/09 03:55:03;;;;;;;;;;;1.60;99.90;;;;;;4881701;29;19927;-79
2021/01/09 03:57:33;;;;;;;;;;;1.50;99.90;;;;;;4896923;29;19923;-80
2021/01/09 04:00:00;;;;;;;;;;;1.50;99.90;;;;;;4881860;29;19924;-79
2021/01/09 04:02:28;;;;;;;;;;;1.40;99.90;;;;;;4882533;29;19923;-80
2021/01/09 04:04:55;;;;;;;;;;;1.40;99.90;;;;;;4898334;29;19923;-80
2021/01/09 04:07:23;;;;;;;;;;;1.30;99.90;;;;;;4897920;29;19923;-80
2021/01/09 04:09:53;;;;;;;;;;;1.30;99.90;;;;;;4872730;29;19934;-80
2021/01/09 04:12:23;;;;;;;;;;;1.30;99.90;;;;;;4881358;29;19924;-79
2021/01/09 04:14:50;;;;;;;;;;;1.30;99.90;;;;;;4896875;29;19923;-80
2021/01/09 04:17:18;;;;;;;;;;;1.20;99.90;;;;;;4912973;29;19924;-80
2021/01/09 04:19:46;;;;;;;;;;;1.10;99.90;;;;;;4895559;29;19923;-79
2021/01/09 04:22:15;;;;;;;;;;;1.20;99.90;;;;;;4892598;29;19924;-82
2021/01/09 04:24:44;;;;;;;;;;;1.10;99.90;;;;;;4893244;29;20276;-80
2021/01/09 04:27:11;;;;;;;;;;;1.10;99.90;;;;;;4894852;29;19924;-78
2021/01/09 04:29:38;;;;;;;;;;;1.10;99.90;;;;;;4911733;29;19945;-81
2021/01/09 04:32:08;;;;;;;;;;;1.20;99.90;;;;;;4878905;29;19935;-79
2021/01/09 04:34:36;;;;;;;;;;;1.30;99.90;;;;;;4908113;29;20412;-80
2021/01/09 04:37:05;;;;;;;;;;;1.30;99.90;;;;;;4875169;29;19934;-80
2021/01/09 04:39:34;;;;;;;;;;;1.30;99.90;;;;;;4874890;29;19923;-80
2021/01/09 04:42:04;;;;;;;;;;;1.20;99.90;;;;;;4906752;29;19927;-80
2021/01/09 04:44:34;;;;;;;;;;;1.30;99.90;;;;;;4891062;29;19931;-79
2021/01/09 04:47:02;;;;;;;;;;;1.30;99.90;;;;;;4890851;29;20376;-79
2021/01/09 04:49:31;;;;;;;;;;;1.20;99.90;;;;;;4875375;29;19924;-80
2021/01/09 04:51:59;;;;;;;;;;;1.00;99.90;;;;;;4892584;29;19935;-80
2021/01/09 04:54:26;;;;;;;;;;;1.00;99.90;;;;;;4908921;29;20243;-79
2021/01/09 04:56:55;;;;;;;;;;;1.10;99.90;;;;;;4892229;29;19923;-79
2021/01/09 04:59:24;;;;;;;;;;;1.20;99.90;;;;;;4887203;29;19923;-80
2021/01/09 05:01:53;;;;;;;;;;;1.20;99.90;;;;;;4889999;29;19938;-80
2021/01/09 05:04:20;;;;;;;;;;;1.20;99.90;;;;;;4874815;29;19934;-80
2021/01/09 05:06:48;;;;;;;;;;;1.20;99.90;;;;;;4891122;29;19934;-80
2021/01/09 05:09:17;;;;;;;;;;;1.20;99.90;;;;;;4891540;29;19934;-80
2021/01/09 05:11:45;;;;;;;;;;;1.10;99.90;;;;;;4875259;29;19924;-81
2021/01/09 05:14:12;;;;;;;;;;;1.10;99.90;;;;;;4904670;29;19923;-79
2021/01/09 05:16:41;;;;;;;;;;;1.20;99.90;;;;;;4888715;29;19923;-79
2021/01/09 05:19:08;;;;;;;;;;;1.20;99.90;;;;;;4886791;29;19923;-80
2021/01/09 05:21:36;;;;;;;;;;;1.20;99.90;;;;;;4872650;29;20351;-80
2021/01/09 05:24:04;;;;;;;;;;;1.10;99.90;;;;;;4904362;29;19934;-80
2021/01/09 05:26:32;;;;;;;;;;;1.10;99.90;;;;;;4890647;29;20281;-80
2021/01/09 05:29:00;;;;;;;;;;;1.10;99.90;;;;;;4898482;29;19934;-79
2021/01/09 05:31:30;;;;;;;;;;;1.10;99.90;;;;;;4896509;29;19935;-79
2021/01/09 05:34:00;;;;;;;;;;;1.10;99.90;;;;;;4889601;29;19923;-79
2021/01/09 05:36:30;;;;;;;;;;;1.10;99.90;;;;;;4893015;29;19923;-79
2021/01/09 05:39:00;;;;;;;;;;;1.10;99.90;;;;;;4910093;29;19923;-79
2021/01/09 05:41:27;;;;;;;;;;;1.10;99.90;;;;;;4876372;29;19931;-79
2021/01/09 05:43:58;;;;;;;;;;;1.10;99.90;;;;;;4875431;29;20358;-79
2021/01/09 05:46:34;;;;;;;;;;;1.00;99.90;;;;;;4889151;29;19939;-79
2021/01/09 05:49:02;;;;;;;;;;;1.10;99.90;;;;;;4890785;29;20112;-80
2021/01/09 05:51:31;;;;;;;;;;;1.00;99.90;;;;;;4906149;29;19923;-81
2021/01/09 05:53:58;;;;;;;;;;;1.00;99.90;;;;;;4904529;29;19950;-80
2021/01/09 05:56:25;;;;;;;;;;;1.10;99.90;;;;;;4905959;29;19923;-78
2021/01/09 05:58:54;;;;;;;;;;;1.10;99.90;;;;;;4911276;29;19934;-78
2021/01/09 06:01:25;;;;;;;;;;;0.90;99.90;;;;;;4908702;29;19923;-80
2021/01/09 06:03:57;;;;;;;;;;;0.90;99.90;;;;;;4888316;29;19923;-81
2021/01/09 06:06:27;;;;;;;;;;;0.90;99.90;;;;;;4888261;29;19923;-79
2021/01/09 06:09:00;;;;;;;;;;;1.00;99.90;;;;;;4872464;29;20358;-78
2021/01/09 06:11:31;;;;;;;;;;;1.00;99.90;;;;;;4856854;29;20357;-79
2021/01/09 06:14:01;;;;;;;;;;;0.90;99.90;;;;;;4887255;29;19927;-80
2021/01/09 06:16:30;;;;;;;;;;;0.90;99.90;;;;;;4889483;29;19923;-79
2021/01/09 06:18:59;;;;;;;;;;;1.00;99.90;;;;;;4897381;29;19929;-80
2021/01/09 06:21:31;;;;;;;;;;;1.00;99.90;;;;;;4897211;29;19950;-80
2021/01/09 06:24:02;;;;;;;;;;;0.80;99.90;;;;;;4879230;29;19956;-81
2021/01/09 06:26:31;;;;;;;;;;;0.80;99.90;;;;;;4891771;29;20349;-81
2021/01/09 06:29:03;;;;;;;;;;;0.80;99.90;;;;;;4892504;29;19931;-80
2021/01/09 06:31:30;;;;;;;;;;;0.80;99.90;;;;;;4878068;29;19924;-77
2021/01/09 06:34:04;;;;;;;;;;;0.70;99.90;;;;;;4872368;29;19928;-82
2021/01/09 06:36:33;;;;;;;;;;;0.80;99.90;;;;;;4854947;29;19939;-79
2021/01/09 06:39:02;;;;;;;;;;;0.80;99.90;;;;;;4867913;29;19953;-80
2021/01/09 06:41:31;;;;;;;;;;;0.80;99.90;;;;;;4863708;29;19924;-80
2021/01/09 06:44:05;;;;;;;;;;;0.70;99.90;;;;;;4879595;29;19924;-81
2021/01/09 06:46:44;;;;;;;;;;;0.80;99.90;;;;;;4848796;29;19924;-81
2021/01/09 06:49:20;;;;;;;;;;;0.70;99.90;;;;;;4863926;29;19935;-80
2021/01/09 06:51:54;;;;;;;;;;;0.60;99.90;;;;;;4868921;29;20002;-80
2021/01/09 06:54:29;;;;;;;;;;;0.80;99.90;;;;;;4884270;29;20281;-80
2021/01/09 06:57:09;;;;;;;;;;;0.90;99.90;;;;;;4884842;29;20354;-79
2021/01/09 06:59:41;;;;;;;;;;;0.90;99.90;;;;;;4870540;29;19934;-80
2021/01/09 07:02:12;;;;;;;;;;;0.90;99.90;;;;;;4899882;29;19924;-79
2021/01/09 07:04:56;;;;;;;;;;;0.80;99.90;;;;;;4892567;29;19935;-78
2021/01/09 07:07:41;;;;;;;;;;;0.70;99.90;;;;;;4892289;29;19924;-80
2021/01/09 07:10:18;;;;;;;;;;;0.80;99.90;;;;;;4854241;29;19923;-82
2021/01/09 07:12:50;;;;;;;;;;;0.70;99.90;;;;;;4865962;29;19934;-80
2021/01/09 07:15:18;;;;;;;;;;;0.80;99.90;;;;;;4868524;29;19947;-80
2021/01/09 07:17:48;;;;;;;;;;;0.70;99.90;;;;;;4879442;29;19924;-80
2021/01/09 07:20:23;;;;;;;;;;;0.80;99.90;;;;;;4882902;29;19931;-80
2021/01/09 07:22:51;;;;;;;;;;;0.70;99.90;;;;;;4882699;29;19939;-79
2021/01/09 07:25:31;;;;;;;;;;;0.70;99.90;;;;;;4883862;29;20358;-81
2021/01/09 07:27:59;;;;;;;;;;;0.70;99.90;;;;;;4863341;29;20397;-79
2021/01/09 07:30:27;;;;;;;;;;;0.80;99.90;;;;;;4883413;29;19923;-79
2021/01/09 07:35:56;;;;;;;;;;;0.90;99.90;;;;;;4864769;29;19931;-80
2021/01/09 07:38:26;;;;;;;;;;;0.90;99.90;;;;;;4888430;29;19928;-79
2021/01/09 07:40:55;;;;;;;;;;;1.00;99.90;;;;;;4878286;29;19924;-80
2021/01/09 07:43:38;;;;;;;;;;;0.90;99.90;;;;;;4859467;29;19923;-80
2021/01/09 07:46:26;;;;;;;;;;;1.00;99.90;;;;;;4891513;29;19923;-81
2021/01/09 07:48:54;;;;;;;;;;;1.10;99.90;;;;;;4882191;29;19951;-80
2021/01/09 07:51:45;;;;;;;;;;;1.10;99.90;;;;;;4886774;29;20262;-79
2021/01/09 07:54:12;;;;;;;;;;;1.10;99.90;;;;;;4858456;29;19935;-82
2021/01/09 07:56:43;;;;;;;;;;;1.20;99.90;;;;;;4871451;29;20293;-82
2021/01/09 07:59:11;;;;;;;;;;;1.20;99.90;;;;;;4868824;29;19932;-80
2021/01/09 08:01:42;;;;;;;;;;;1.20;99.90;;;;;;4867697;29;19931;-81
2021/01/09 08:04:10;;;;;;;;;;;1.20;99.90;;;;;;4852407;29;19935;-81
2021/01/09 08:06:38;;;;;;;;;;;1.20;99.90;;;;;;4871617;29;20306;-79
2021/01/09 08:09:05;;;;;;;;;;;1.20;99.90;;;;;;4873251;29;19924;-80
2021/01/09 08:11:41;;;;;;;;;;;1.20;99.90;;;;;;4854216;29;19924;-79
2021/01/09 08:14:12;;;;;;;;;;;1.20;99.90;;;;;;4867371;29;19924;-79
2021/01/09 08:16:41;;;;;;;;;;;1.20;99.90;;;;;;4899053;29;20384;-78
2021/01/09 08:19:16;;;;;;;;;;;1.20;99.90;;;;;;4869025;29;20374;-80
2021/01/09 08:21:47;;;;;;;;;;;1.20;99.90;;;;;;4871683;29;20545;-83
2021/01/09 08:24:23;;;;;;;;;;;1.20;99.90;;;;;;4887346;29;19944;-80
2021/01/09 08:26:51;;;;;;;;;;;1.20;99.90;;;;;;4885820;29;19924;-80
2021/01/09 08:29:23;;;;;;;;;;;1.20;99.90;;;;;;4870556;29;19923;-82
2021/01/09 08:31:52;;;;;;;;;;;1.30;99.90;;;;;;4869395;29;19935;-79
2021/01/09 08:34:21;;;;;;;;;;;1.30;99.90;;;;;;4886304;29;19935;-81
2021/01/09 08:36:52;;;;;;;;;;;1.40;99.90;;;;;;4870805;29;19924;-82
2021/01/09 08:39:20;;;;;;;;;;;1.30;99.90;;;;;;4889343;29;19934;-79
2021/01/09 08:41:48;;;;;;;;;;;1.30;99.90;;;;;;4884904;29;19923;-82
2021/01/09 08:44:15;;;;;;;;;;;1.40;99.90;;;;;;4887047;29;19924;-80
2021/01/09 08:46:44;;;;;;;;;;;1.30;99.90;;;;;;4870875;29;19928;-80
2021/01/09 08:49:22;;;;;;;;;;;1.30;99.90;;;;;;4880387;29;19935;-78
2021/01/09 08:51:55;;;;;;;;;;;1.30;99.90;;;;;;4867964;29;19924;-78
2021/01/09 08:54:28;;;;;;;;;;;1.40;99.90;;;;;;4868158;29;19927;-80
2021/01/09 08:56:57;;;;;;;;;;;1.40;99.90;;;;;;4878353;29;19924;-79
2021/01/09 08:59:26;;;;;;;;;;;1.30;99.90;;;;;;4893696;29;20273;-83
2021/01/09 09:01:57;;;;;;;;;;;1.30;99.90;;;;;;4884209;29;20464;-79
2021/01/09 09:04:26;;;;;;;;;;;1.30;99.90;;;;;;4866992;29;19931;-80
2021/01/09 09:13:17;;;;;;;;;;;1.30;99.90;;;;;;4049483;23;19928;-79
2021/01/09 09:15:48;;;;;;;;;;;1.30;99.90;;;;;;4856083;29;19924;-78
2021/01/09 09:18:16;;;;;;;;;;;1.20;99.90;;;;;;4869782;29;19928;-79
2021/01/09 09:20:48;;;;;;;;;;;1.10;99.90;;;;;;4869111;29;19923;-81
2021/01/09 09:23:17;;;;;;;;;;;1.10;99.90;;;;;;4872318;29;20281;-80
2021/01/09 09:26:01;;;;;;;;;;;1.20;99.90;;;;;;4868450;29;19924;-80
2021/01/09 09:28:28;;;;;;;;;;;1.30;99.90;;;;;;4869721;29;19942;-77
2021/01/09 09:30:56;;;;;;;;;;;1.30;99.90;;;;;;4879636;29;19948;-78
2021/01/09 09:33:24;;;;;;;;;;;1.20;99.90;;;;;;4879943;29;20256;-78
2021/01/09 09:36:17;;;;;;;;;;;1.20;99.90;;;;;;4879022;29;20381;-77
2021/01/09 09:38:44;;;;;;;;;;;1.10;99.90;;;;;;4854795;29;20389;-79
2021/01/09 09:41:11;;;;;;;;;;;1.00;99.90;;;;;;4873093;29;19924;-78
2021/01/09 09:43:38;;;;;;;;;;;1.00;99.90;;;;;;4860774;29;19923;-77
2021/01/09 09:46:08;;;;;;;;;;;1.00;99.90;;;;;;4867072;29;19928;-79
2021/01/09 09:48:40;;;;;;;;;;;1.00;99.90;;;;;;4863152;29;19935;-78
2021/01/09 09:51:09;;;;;;;;;;;1.00;99.90;;;;;;4878904;29;19935;-82
2021/01/09 09:53:37;;;;;;;;;;;1.00;99.90;;;;;;4865675;29;19927;-81
2021/01/09 09:56:11;;;;;;;;;;;0.90;99.90;;;;;;4866065;29;19928;-82
2021/01/09 09:58:38;;;;;;;;;;;0.90;99.90;;;;;;4867554;29;19939;-80
2021/01/09 10:01:14;;;;;;;;;;;0.90;99.90;;;;;;4872390;29;19935;-81
2021/01/09 10:03:44;;;;;;;;;;;0.90;99.90;;;;;;4866855;29;19935;-81
2021/01/09 10:06:11;;;;;;;;;;;1.00;99.90;;;;;;4857145;29;19923;-80
2021/01/09 10:08:38;;;;;;;;;;;1.00;99.90;;;;;;4877555;29;19923;-81
2021/01/09 10:11:06;;;;;;;;;;;1.00;99.90;;;;;;4869450;29;20298;-79
2021/01/09 10:13:36;;;;;;;;;;;1.00;99.90;;;;;;4909475;29;19930;-80
2021/01/09 10:16:03;;;;;;;;;;;0.90;99.90;;;;;;4901801;29;19946;-81
2021/01/09 10:18:30;;;;;;;;;;;1.10;99.90;;;;;;4902282;29;19923;-81
2021/01/09 10:20:59;;;;;;;;;;;1.00;99.90;;;;;;4892975;29;19923;-81
2021/01/09 10:23:28;;;;;;;;;;;1.00;99.90;;;;;;4887507;29;20276;-81
2021/01/09 10:25:56;;;;;;;;;;;1.00;99.90;;;;;;4905166;29;19923;-81
2021/01/09 10:28:23;;;;;;;;;;;1.00;99.90;;;;;;4897955;29;19923;-81
2021/01/09 10:30:50;;;;;;;;;;;1.20;99.90;;;;;;4884655;29;20325;-82
2021/01/09 10:33:20;;;;;;;;;;;1.20;99.90;;;;;;4898604;29;20277;-81
2021/01/09 10:35:47;;;;;;;;;;;1.30;99.90;;;;;;4887980;29;20349;-80
2021/01/09 10:38:16;;;;;;;;;;;1.40;99.90;;;;;;4897993;29;19931;-82
2021/01/09 10:40:45;;;;;;;;;;;1.30;99.90;;;;;;4889622;29;20261;-81
2021/01/09 10:43:19;;;;;;;;;;;1.30;99.90;;;;;;4901446;29;20329;-80
2021/01/09 10:45:53;;;;;;;;;;;1.30;99.90;;;;;;4897618;29;19923;-82
2021/01/09 10:48:22;;;;;;;;;;;1.40;99.90;;;;;;4904040;29;19945;-80
2021/01/09 10:50:49;;;;;;;;;;;1.50;99.90;;;;;;4910696;29;19934;-80
2021/01/09 10:53:21;;;;;;;;;;;1.50;99.90;;;;;;4897559;29;19934;-81
2021/01/09 10:55:48;;;;;;;;;;;1.50;99.90;;;;;;4903961;29;19922;-82
2021/01/09 10:58:18;;;;;;;;;;;1.50;99.90;;;;;;4877989;29;19923;-82
2021/01/09 11:00:45;;;;;;;;;;;1.60;99.90;;;;;;4887687;29;19924;-81
2021/01/09 11:03:21;;;;;;;;;;;1.70;99.90;;;;;;4903911;29;20354;-82
2021/01/09 11:05:48;;;;;;;;;;;1.80;99.90;;;;;;4904774;29;20349;-80
2021/01/09 11:08:18;;;;;;;;;;;1.80;99.90;;;;;;4907219;29;19923;-80
2021/01/09 11:10:55;;;;;;;;;;;1.80;99.90;;;;;;4878998;29;19927;-81
2021/01/09 11:13:22;;;;;;;;;;;1.90;99.90;;;;;;4885349;29;19934;-80
2021/01/09 11:15:50;;;;;;;;;;;1.80;99.90;;;;;;4893152;29;19923;-80
2021/01/09 11:18:18;;;;;;;;;;;1.90;99.90;;;;;;4890318;29;20349;-81
2021/01/09 11:20:46;;;;;;;;;;;1.90;99.90;;;;;;4915641;29;19930;-79
2021/01/09 11:23:14;;;;;;;;;;;1.90;99.90;;;;;;4892582;29;19934;-80
2021/01/09 11:25:41;;;;;;;;;;;1.90;99.90;;;;;;4896901;29;20004;-80
2021/01/09 11:28:09;;;;;;;;;;;2.00;99.90;;;;;;4904826;29;19923;-79
2021/01/09 11:30:39;;;;;;;;;;;1.90;99.90;;;;;;4895432;29;19907;-86
2021/01/09 11:33:07;;;;;;;;;;;1.90;99.90;;;;;;4898737;29;19934;-80
2021/01/09 11:35:38;;;;;;;;;;;1.90;99.90;;;;;;4877308;29;19938;-80
2021/01/09 11:38:07;;;;;;;;;;;1.90;99.90;;;;;;4885559;29;19924;-80
2021/01/09 11:40:34;;;;;;;;;;;2.00;99.90;;;;;;4902574;29;19935;-80
2021/01/09 11:43:01;;;;;;;;;;;2.00;99.90;;;;;;4872134;29;19924;-81
2021/01/09 11:45:29;;;;;;;;;;;2.00;99.90;;;;;;4904700;29;19934;-81
2021/01/09 11:47:56;;;;;;;;;;;2.10;99.90;;;;;;4887922;29;20372;-80
2021/01/09 11:50:30;;;;;;;;;;;2.10;99.90;;;;;;4921216;29;19933;-78
2021/01/09 11:55:57;;;;;;;;;;;2.20;99.90;;;;;;4899640;29;19903;-78
2021/01/09 11:58:29;;;;;;;;;;;2.10;99.90;;;;;;4918425;29;19942;-77
2021/01/09 12:00:57;;;;;;;;;;;2.00;99.90;;;;;;4916461;29;19927;-78
2021/01/09 12:03:26;;;;;;;;;;;2.10;99.90;;;;;;4913670;29;19930;-77
2021/01/09 12:05:54;;;;;;;;;;;2.10;99.90;;;;;;4885774;29;19934;-77
2021/01/09 12:08:23;;;;;;;;;;;2.20;99.90;;;;;;4912654;29;19924;-78
2021/01/09 12:10:51;;;;;;;;;;;2.10;99.90;;;;;;4892672;29;19934;-79
2021/01/09 12:13:21;;;;;;;;;;;2.20;99.90;;;;;;4878966;29;19923;-77
2021/01/09 12:15:48;;;;;;;;;;;2.30;99.90;;;;;;4890783;29;20364;-78
2021/01/09 12:18:17;;;;;;;;;;;2.20;99.90;;;;;;4911077;29;20344;-79
2021/01/09 12:20:44;;;;;;;;;;;2.20;99.90;;;;;;4875801;29;19931;-77
2021/01/09 12:23:11;;;;;;;;;;;2.20;99.90;;;;;;4900565;29;19923;-77
2021/01/09 12:25:38;;;;;;;;;;;2.20;99.90;;;;;;4905580;29;19923;-77
2021/01/09 12:28:07;;;;;;;;;;;2.20;99.90;;;;;;4867770;29;19938;-76
2021/01/09 12:30:34;;;;;;;;;;;2.30;99.90;;;;;;4898978;29;20353;-77
2021/01/09 12:33:01;;;;;;;;;;;2.30;99.90;;;;;;4914542;29;20353;-78
2021/01/09 12:35:29;;;;;;;;;;;2.40;99.90;;;;;;4885772;29;19923;-77
2021/01/09 12:37:58;;;;;;;;;;;2.30;99.90;;;;;;4885236;29;19923;-78
2021/01/09 12:40:25;;;;;;;;;;;2.30;99.90;;;;;;4882714;29;19934;-77
2021/01/09 12:42:52;;;;;;;;;;;2.30;99.90;;;;;;4867484;29;19943;-78
2021/01/09 12:45:20;;;;;;;;;;;2.20;99.90;;;;;;4868129;29;19934;-77
2021/01/09 12:47:54;;;;;;;;;;;2.20;99.90;;;;;;4901759;29;19934;-78
2021/01/09 12:50:21;;;;;;;;;;;2.20;99.90;;;;;;4886136;29;19923;-77
2021/01/09 12:52:49;;;;;;;;;;;2.20;99.90;;;;;;4911356;29;19923;-77
2021/01/09 12:55:16;;;;;;;;;;;2.20;99.90;;;;;;4903016;29;19923;-76
2021/01/09 12:57:43;;;;;;;;;;;2.20;99.90;;;;;;4870501;29;19923;-78
2021/01/09 13:00:13;;;;;;;;;;;2.20;99.90;;;;;;4887028;29;19934;-77
2021/01/09 13:02:41;;;;;;;;;;;2.30;99.90;;;;;;4873981;29;20273;-78
2021/01/09 13:05:11;;;;;;;;;;;2.30;99.90;;;;;;4911148;29;19922;-76
2021/01/09 13:07:38;;;;;;;;;;;2.20;99.90;;;;;;4919341;29;19927;-77
2021/01/09 13:10:08;;;;;;;;;;;2.10;99.90;;;;;;4893134;29;20269;-79
2021/01/09 13:12:35;;;;;;;;;;;2.10;99.90;;;;;;4896048;29;19923;-79
2021/01/09 13:15:03;;;;;;;;;;;2.10;99.90;;;;;;4906568;29;19927;-77
2021/01/09 13:17:30;;;;;;;;;;;2.10;99.90;;;;;;4902785;29;19923;-76
2021/01/09 13:19:58;;;;;;;;;;;2.10;99.90;;;;;;4889977;29;19938;-78
2021/01/09 13:22:27;;;;;;;;;;;2.20;99.90;;;;;;4900608;29;19927;-79
2021/01/09 13:24:54;;;;;;;;;;;2.20;99.90;;;;;;4884604;29;19923;-77
2021/01/09 13:27:22;;;;;;;;;;;2.20;99.90;;;;;;4900384;29;19924;-78
2021/01/09 13:29:50;;;;;;;;;;;2.10;99.90;;;;;;4872439;29;19923;-77
2021/01/09 13:32:22;;;;;;;;;;;2.10;99.90;;;;;;4896021;29;19927;-77
2021/01/09 13:34:52;;;;;;;;;;;2.20;99.90;;;;;;4904562;29;19949;-79
2021/01/09 13:37:19;;;;;;;;;;;2.10;99.90;;;;;;4919570;29;19923;-78
2021/01/09 13:39:47;;;;;;;;;;;2.10;99.90;;;;;;4905202;29;19923;-78
2021/01/09 13:42:17;;;;;;;;;;;2.00;99.90;;;;;;4888903;29;19934;-77
2021/01/09 13:44:49;;;;;;;;;;;2.00;99.90;;;;;;4889765;29;19926;-77
2021/01/09 13:47:16;;;;;;;;;;;2.00;99.90;;;;;;4905701;29;19923;-78
2021/01/09 13:49:43;;;;;;;;;;;2.10;99.90;;;;;;4875490;29;19935;-78
2021/01/09 13:52:13;;;;;;;;;;;2.10;99.90;;;;;;4890761;29;19922;-78
2021/01/09 13:54:43;;;;;;;;;;;2.00;99.90;;;;;;4888079;29;19931;-78
2021/01/09 13:57:10;;;;;;;;;;;2.10;99.90;;;;;;4897886;29;19923;-77
2021/01/09 13:59:37;;;;;;;;;;;2.00;99.90;;;;;;4902528;29;19930;-78
2021/01/09 14:02:07;;;;;;;;;;;1.90;99.90;;;;;;4915263;29;20273;-77
2021/01/09 14:04:37;;;;;;;;;;;2.00;99.90;;;;;;4919778;29;19923;-76
2021/01/09 14:07:09;;;;;;;;;;;2.00;99.90;;;;;;4913487;29;19924;-77
2021/01/09 14:09:36;;;;;;;;;;;1.80;99.90;;;;;;4902035;29;19923;-77
2021/01/09 14:12:10;;;;;;;;;;;1.90;99.90;;;;;;4895951;29;19935;-76
2021/01/09 14:14:39;;;;;;;;;;;2.00;99.90;;;;;;4850178;29;19924;-77
2021/01/09 14:17:07;;;;;;;;;;;2.00;99.90;;;;;;4890209;29;19923;-78
2021/01/09 14:19:36;;;;;;;;;;;2.00;99.90;;;;;;4869261;29;19924;-74
2021/01/09 14:22:03;;;;;;;;;;;2.00;99.90;;;;;;4864166;29;19924;-76
2021/01/09 14:24:30;;;;;;;;;;;2.10;99.90;;;;;;4885292;29;19935;-76
2021/01/09 14:26:57;;;;;;;;;;;2.10;99.90;;;;;;4878526;29;19931;-77
2021/01/09 14:29:26;;;;;;;;;;;2.00;99.90;;;;;;4856732;29;20350;-78
2021/01/09 14:31:54;;;;;;;;;;;2.00;99.90;;;;;;4866804;29;19924;-78
2021/01/09 14:34:24;;;;;;;;;;;2.00;99.90;;;;;;4882179;29;19947;-78
2021/01/09 14:36:52;;;;;;;;;;;1.90;99.90;;;;;;4864776;29;19924;-76
2021/01/09 14:39:19;;;;;;;;;;;2.00;99.90;;;;;;4881574;29;19923;-77
2021/01/09 14:41:49;;;;;;;;;;;1.90;99.90;;;;;;4873633;29;19924;-77
2021/01/09 14:44:16;;;;;;;;;;;1.90;99.90;;;;;;4881104;29;19924;-78
2021/01/09 14:46:43;;;;;;;;;;;2.00;99.90;;;;;;4883313;29;19931;-77
2021/01/09 14:49:11;;;;;;;;;;;2.10;99.90;;;;;;4867274;29;19924;-77
2021/01/09 14:51:39;;;;;;;;;;;2.10;99.90;;;;;;4882630;29;20318;-78
2021/01/09 14:54:07;;;;;;;;;;;2.00;99.90;;;;;;4868481;29;19924;-78
2021/01/09 14:56:34;;;;;;;;;;;2.00;99.90;;;;;;4871117;29;19935;-78